Terminal Aerodrome Forecast
Issued by NWS

Home | Current Version | Previous Version | Text Only | Print | Product List | Glossary On
Versions: 1 2 3 4 5 6 7 8 9 10 11 12 13 14 15 16 17 18 19 20 21 22 23 24 25
000
FTUS45 KTFX 301720
TAFGTF
TAF
KGTF 301720Z 3018/3118 23012KT 4SM FU OVC025
     FM302000 23018G25KT 6SM FU VCSH SCT070 BKN140
      TEMPO 3021/3101 VRB25G35KT -TSRA BKN070CB
     FM310100 26022G30KT P6SM SCT070 SCT140
     FM310600 23015KT P6SM SKC
     FM311200 23017KT P6SM BKN250=

USA.gov is the U.S. government's official web portal to all federal, state and local government web resources and services.